MDT,Max TemperatureF,Mean TemperatureF,Min TemperatureF,Max Dew PointF,MeanDew PointF,Min DewpointF,Max Humidity, Mean Humidity, Min Humidity, Max Sea Level PressureIn, Mean Sea Level PressureIn, Min Sea Level PressureIn, Max VisibilityMiles, Mean VisibilityMiles, Min VisibilityMiles, Max Wind SpeedMPH, Mean Wind SpeedMPH, Max Gust SpeedMPH,PrecipitationIn, CloudCover, Events, WindDirDegrees
2013-4-1,46,35,23,27,25,20,100,75,49,30.25,30.17,30.11,10,8,0,21,11,25,0.00,4,Fog,123
2013-4-2,40,36,32,32,28,23,96,78,59,30.20,30.14,30.09,10,8,1,22,13,26,0.03,8,Snow,154
2013-4-3,55,44,32,36,33,30,96,71,45,30.20,30.13,30.05,10,8,0,20,10,82,T,6,Fog-Snow,171
2013-4-4,67,51,35,34,30,26,82,53,24,30.12,30.04,29.94,10,10,10,18,10,24,0.00,1,,234
2013-4-5,73,59,45,40,30,20,61,38,14,29.93,29.74,29.59,10,10,10,45,14,53,T,1,Rain-Thunderstorm,248
2013-4-6,64,51,38,37,24,15,73,45,16,29.84,29.80,29.73,10,10,10,24,12,32,0.00,2,,308
2013-4-7,66,52,37,38,28,21,76,48,19,29.78,29.68,29.59,10,10,10,21,10,31,T,3,Rain,265
2013-4-8,71,48,24,35,32,28,92,91,89,29.67,29.54,29.42,10,8,2,35,25,69,0.55,5,Rain-Snow,34
2013-4-9,23,15,7,27,10,5,92,84,76,30.36,30.01,29.70,9,1,0,162,33,183,0.02,8,Fog-Rain-Snow,352
2013-4-10,21,13,4,12,7,0,88,78,67,30.35,30.15,29.97,10,7,1,28,16,33,T,7,Snow,325
2013-4-11,43,28,12,34,19,8,84,77,70,30.03,29.90,29.78,10,10,10,24,11,29,T,3,,292
2013-4-12,55,43,31,39,35,29,82,62,41,30.05,29.95,29.86,10,8,1,47,13,62,0.08,6,Rain-Snow,318
2013-4-13,64,47,30,40,31,21,92,56,20,29.98,29.68,29.31,10,7,0,35,13,43,0.00,3,Fog,188
2013-4-14,49,42,34,32,20,13,70,54,38,29.78,29.56,29.39,10,10,10,47,28,62,T,2,Rain,312
2013-4-15,38,32,26,29,25,19,92,74,56,30.10,29.92,29.76,10,6,1,17,11,21,0.02,8,Snow,38
2013-4-16,37,32,27,27,26,24,100,80,59,30.11,30.00,29.88,10,7,0,28,15,35,0.00,8,Fog-Rain,114
2013-4-17,29,25,20,28,24,18,100,96,91,30.20,30.00,29.91,10,3,0,31,16,38,0.03,8,Fog-Rain-Snow,40
2013-4-18,28,22,16,19,16,10,91,75,58,30.27,30.16,30.05,10,9,2,32,19,38,T,7,Snow,324
2013-4-19,53,37,21,30,23,15,81,56,30,30.19,30.08,29.96,10,10,10,23,14,30,0.00,4,,278
2013-4-20,60,48,36,32,25,19,64,45,26,29.96,29.90,29.86,10,10,10,17,10,22,T,5,Rain,184
2013-4-21,61,48,34,40,34,24,96,61,25,30.03,29.99,29.95,10,10,10,32,9,47,0.02,3,Rain,6
2013-4-22,50,36,21,43,28,19,100,93,85,30.37,30.13,29.84,10,3,0,35,19,43,0.07,8,Fog-Rain-Snow,20
2013-4-23,29,24,19,21,18,15,92,80,68,30.40,30.28,30.21,10,4,0,21,10,24,0.02,6,Fog-Snow,344
2013-4-24,50,36,21,29,21,15,81,55,29,30.27,30.22,30.17,10,10,10,22,12,29,0.00,2,,272
2013-4-25,45,39,33,28,23,21,69,61,52,30.19,30.03,29.91,10,10,10,10,9,,0.00,0,,247
2013-4-26,69,58,47,25,20,15,35,24,13,30.22,30.11,29.97,10,10,10,10,7,21,0.00,0,,59
2013-4-27,77,60,42,30,23,12,57,33,9,30.21,30.00,29.89,10,10,10,23,12,29,0.00,0,,263
2013-4-28,80,62,44,33,26,19,53,32,11,29.87,29.80,29.71,10,10,10,22,14,30,0.00,2,,281
2013-4-29,82,64,46,36,31,20,54,32,10,29.83,29.62,29.45,10,10,10,25,9,30,T,1,,199
2013-4-30,60,49,38,37,32,28,82,58,33,29.96,29.71,29.46,10,10,10,32,16,38,0.00,1,,23